SBTT Airport Information

Runway Information
Runway 12 Length 7054 ft width 98 ft
Elevation 0 ft Threshold 0 ft Heading 0
Runway 30 Length 7054 ft Width 98 ft
Elevation 0 ft Threshold 0 ft Heading 0
Airport Frequencies
Type AFIS Name RDO Frequency 125.9 MHZ
Airport Navaids
Type NDB Name Tabatinga Frequency 230 KHZ
Airport Weather Information & NOTAM
ADDS - METARS form results

(2116 UTC 16 August 2018)
 
METAR text: SBTT 162100Z 22004KT 9999 BKN011 BKN080 25/22 Q1015
Conditions at: SBTT (TABATINGA INTL A, BR) observed 2100 UTC 16 August 2018
Temperature: 25.0°C (77°F)
Dewpoint: 22.0°C (72°F) [RH = 83%]
Pressure (altimeter): 29.97 inches Hg (1015.0 mb)
Winds: from the SW (220 degrees) at 5 MPH (4 knots; 2.1 m/s)
Visibility: 6 or more miles (10+ km)
Ceiling: 1100 feet AGL
Clouds: broken clouds at 1100 feet AGL
broken clouds at 8000 feet AGL
Weather: no significant weather observed at this time